SHT7T EGLL-EGJB
Flight info
| Callsign | SHT7T |
|---|---|
| Flight time | 0h 36m |
| Altitude | 17000 |
| Route | GASGU2J GASGU N866 SAM/N0354F160 N63 LELNA LELNA1V |
| Aircraft | A20N/M-SDE2E3FGHIRWXY/LB1 |
Departure
| Time | 2026-04-23 16:37 |
|---|---|
| Airport | London Heathrow Airport (EGLL) |
Arrival
| Time | 2026-04-23 17:14 |
|---|---|
| Airport | Guernsey Airport (EGJB) |
| Time | Latitude | Longitude | Altitude | Speed | Heading |
|---|---|---|---|---|---|
| 2026-04-23 16:16 | 51.46922 | -0.48862 | 88 ft | 0 kts | 360° |
| 2026-04-23 16:28 | 51.46916 | -0.48862 | 90 ft | 2 kts | 360° |
| 2026-04-23 16:28 | 51.46897 | -0.48862 | 87 ft | 3 kts | 349° |
| 2026-04-23 16:28 | 51.46882 | -0.48851 | 89 ft | 3 kts | 301° |
| 2026-04-23 16:28 | 51.46876 | -0.48823 | 87 ft | 2 kts | 270° |
| 2026-04-23 16:29 | 51.46876 | -0.48805 | 90 ft | 3 kts | 269° |
| 2026-04-23 16:29 | 51.46876 | -0.48773 | 87 ft | 3 kts | 269° |
| 2026-04-23 16:29 | 51.46876 | -0.48741 | 87 ft | 3 kts | 270° |
| 2026-04-23 16:29 | 51.46876 | -0.48711 | 87 ft | 2 kts | 270° |
| 2026-04-23 16:30 | 51.46876 | -0.48704 | 87 ft | 0 kts | 270° |
| 2026-04-23 16:32 | 51.46876 | -0.48711 | 87 ft | 2 kts | 270° |
| 2026-04-23 16:32 | 51.46862 | -0.48750 | 90 ft | 6 kts | 214° |
| 2026-04-23 16:32 | 51.46826 | -0.48753 | 88 ft | 5 kts | 179° |
| 2026-04-23 16:33 | 51.46806 | -0.48753 | 88 ft | 0 kts | 179° |
| 2026-04-23 16:33 | 51.46804 | -0.48753 | 89 ft | 2 kts | 179° |
| 2026-04-23 16:33 | 51.46778 | -0.48752 | 87 ft | 6 kts | 179° |
| 2026-04-23 16:33 | 51.46725 | -0.48751 | 89 ft | 9 kts | 179° |
| 2026-04-23 16:34 | 51.46656 | -0.48750 | 86 ft | 8 kts | 179° |
| 2026-04-23 16:34 | 51.46609 | -0.48765 | 90 ft | 4 kts | 201° |
| 2026-04-23 16:34 | 51.46587 | -0.48778 | 88 ft | 4 kts | 200° |
| 2026-04-23 16:34 | 51.46546 | -0.48791 | 87 ft | 8 kts | 184° |
| 2026-04-23 16:35 | 51.46494 | -0.48750 | 87 ft | 9 kts | 131° |
| 2026-04-23 16:35 | 51.46479 | -0.48675 | 88 ft | 0 kts | 90° |
| 2026-04-23 16:36 | 51.46479 | -0.48642 | 88 ft | 19 kts | 90° |
| 2026-04-23 16:37 | 51.46480 | -0.48014 | 87 ft | 89 kts | 91° |
| 2026-04-23 16:37 | 51.46483 | -0.46728 | 91 ft | 139 kts | 88° |
| 2026-04-23 16:37 | 51.46493 | -0.45018 | 339 ft | 159 kts | 88° |
| 2026-04-23 16:37 | 51.46490 | -0.43150 | 718 ft | 174 kts | 89° |
| 2026-04-23 16:38 | 51.46387 | -0.41251 | 1568 ft | 166 kts | 105° |
| 2026-04-23 16:38 | 51.45870 | -0.39581 | 2170 ft | 178 kts | 119° |
| 2026-04-23 16:38 | 51.45124 | -0.37874 | 2473 ft | 198 kts | 123° |
| 2026-04-23 16:38 | 51.44247 | -0.36008 | 2891 ft | 220 kts | 124° |
| 2026-04-23 16:39 | 51.43206 | -0.34074 | 3462 ft | 241 kts | 140° |
| 2026-04-23 16:39 | 51.41636 | -0.33030 | 4400 ft | 252 kts | 168° |
| 2026-04-23 16:39 | 51.39853 | -0.33143 | 5321 ft | 264 kts | 189° |
| 2026-04-23 16:39 | 51.38414 | -0.34040 | 6044 ft | 274 kts | 208° |
| 2026-04-23 16:40 | 51.37134 | -0.35945 | 6993 ft | 281 kts | 229° |
| 2026-04-23 16:40 | 51.35976 | -0.38502 | 7899 ft | 287 kts | 231° |
| 2026-04-23 16:40 | 51.34803 | -0.41110 | 8852 ft | 290 kts | 231° |
| 2026-04-23 16:40 | 51.33608 | -0.43758 | 9785 ft | 295 kts | 231° |
| 2026-04-23 16:41 | 51.32412 | -0.46395 | 10650 ft | 301 kts | 231° |
| 2026-04-23 16:41 | 51.31132 | -0.49193 | 11088 ft | 323 kts | 231° |
| 2026-04-23 16:41 | 51.29897 | -0.52337 | 11372 ft | 349 kts | 245° |
| 2026-04-23 16:41 | 51.29384 | -0.56192 | 12039 ft | 361 kts | 265° |
| 2026-04-23 16:42 | 51.29243 | -0.60214 | 12870 ft | 365 kts | 266° |
| 2026-04-23 16:42 | 51.29103 | -0.64283 | 13721 ft | 369 kts | 266° |
| 2026-04-23 16:42 | 51.28956 | -0.68402 | 14508 ft | 373 kts | 266° |
| 2026-04-23 16:42 | 51.28801 | -0.72563 | 15241 ft | 377 kts | 266° |
| 2026-04-23 16:43 | 51.28638 | -0.76758 | 16001 ft | 380 kts | 266° |
| 2026-04-23 16:43 | 51.28464 | -0.80932 | 16740 ft | 383 kts | 266° |
| 2026-04-23 16:43 | 51.28211 | -0.85176 | 17176 ft | 387 kts | 258° |
| 2026-04-23 16:43 | 51.27302 | -0.89221 | 17344 ft | 387 kts | 239° |
| 2026-04-23 16:44 | 51.25667 | -0.92610 | 17375 ft | 386 kts | 222° |
| 2026-04-23 16:44 | 51.23666 | -0.95458 | 17372 ft | 384 kts | 218° |
| 2026-04-23 16:44 | 51.21616 | -0.98169 | 17373 ft | 382 kts | 218° |
| 2026-04-23 16:44 | 51.19610 | -1.00838 | 17373 ft | 382 kts | 218° |
| 2026-04-23 16:45 | 51.17603 | -1.03573 | 17371 ft | 383 kts | 219° |
| 2026-04-23 16:45 | 51.15580 | -1.06381 | 17377 ft | 383 kts | 220° |
| 2026-04-23 16:45 | 51.13579 | -1.09186 | 17369 ft | 383 kts | 220° |
| 2026-04-23 16:45 | 51.11585 | -1.11992 | 17365 ft | 383 kts | 220° |
| 2026-04-23 16:46 | 51.09624 | -1.14751 | 17366 ft | 382 kts | 220° |
| 2026-04-23 16:46 | 51.07628 | -1.17559 | 17349 ft | 383 kts | 220° |
| 2026-04-23 16:46 | 51.05635 | -1.20356 | 17345 ft | 382 kts | 220° |
| 2026-04-23 16:46 | 51.03638 | -1.23154 | 17344 ft | 383 kts | 220° |
| 2026-04-23 16:47 | 51.01643 | -1.25946 | 17346 ft | 381 kts | 220° |
| 2026-04-23 16:47 | 50.99656 | -1.28724 | 17351 ft | 381 kts | 220° |
| 2026-04-23 16:47 | 50.97660 | -1.31512 | 17347 ft | 382 kts | 220° |
| 2026-04-23 16:47 | 50.95627 | -1.34107 | 17348 ft | 382 kts | 213° |
| 2026-04-23 16:48 | 50.93361 | -1.36267 | 17346 ft | 380 kts | 205° |
| 2026-04-23 16:48 | 50.91031 | -1.38104 | 17351 ft | 379 kts | 205° |
| 2026-04-23 16:48 | 50.88684 | -1.39965 | 17347 ft | 379 kts | 205° |
| 2026-04-23 16:48 | 50.86324 | -1.41845 | 17347 ft | 379 kts | 205° |
| 2026-04-23 16:49 | 50.84752 | -1.43097 | 17345 ft | 379 kts | 205° |
| 2026-04-23 16:49 | 50.81600 | -1.45608 | 17345 ft | 380 kts | 205° |
| 2026-04-23 16:49 | 50.79245 | -1.47481 | 17342 ft | 378 kts | 205° |
| 2026-04-23 16:49 | 50.76896 | -1.49348 | 17338 ft | 379 kts | 205° |
| 2026-04-23 16:50 | 50.74542 | -1.51216 | 17323 ft | 378 kts | 205° |
| 2026-04-23 16:50 | 50.72189 | -1.53082 | 17324 ft | 378 kts | 205° |
| 2026-04-23 16:50 | 50.69871 | -1.54915 | 17322 ft | 378 kts | 205° |
| 2026-04-23 16:50 | 50.67521 | -1.56774 | 17319 ft | 378 kts | 205° |
| 2026-04-23 16:51 | 50.65165 | -1.58635 | 17322 ft | 379 kts | 205° |
| 2026-04-23 16:51 | 50.62816 | -1.60489 | 17322 ft | 378 kts | 206° |
| 2026-04-23 16:51 | 50.60466 | -1.62342 | 17322 ft | 377 kts | 206° |
| 2026-04-23 16:51 | 50.58121 | -1.64188 | 17319 ft | 377 kts | 206° |
| 2026-04-23 16:52 | 50.55774 | -1.66033 | 17321 ft | 377 kts | 206° |
| 2026-04-23 16:52 | 50.53456 | -1.67853 | 17321 ft | 377 kts | 206° |
| 2026-04-23 16:52 | 50.51109 | -1.69695 | 17321 ft | 376 kts | 206° |
| 2026-04-23 16:52 | 50.48770 | -1.71529 | 17320 ft | 376 kts | 206° |
| 2026-04-23 16:53 | 50.46427 | -1.73364 | 17316 ft | 376 kts | 206° |
| 2026-04-23 16:53 | 50.44085 | -1.75196 | 17320 ft | 376 kts | 206° |
| 2026-04-23 16:53 | 50.41750 | -1.77021 | 17314 ft | 375 kts | 206° |
| 2026-04-23 16:53 | 50.39411 | -1.78847 | 17318 ft | 375 kts | 206° |
| 2026-04-23 16:54 | 50.37096 | -1.80652 | 17312 ft | 375 kts | 206° |
| 2026-04-23 16:54 | 50.34741 | -1.82485 | 17313 ft | 375 kts | 206° |
| 2026-04-23 16:54 | 50.32440 | -1.84274 | 17311 ft | 374 kts | 206° |
| 2026-04-23 16:54 | 50.30110 | -1.86085 | 17309 ft | 374 kts | 206° |
| 2026-04-23 16:55 | 50.27777 | -1.87895 | 17309 ft | 374 kts | 206° |
| 2026-04-23 16:55 | 50.25446 | -1.89702 | 17310 ft | 374 kts | 206° |
| 2026-04-23 16:55 | 50.23119 | -1.91503 | 17307 ft | 373 kts | 206° |
| 2026-04-23 16:55 | 50.20796 | -1.93300 | 17304 ft | 373 kts | 206° |
| 2026-04-23 16:56 | 50.18469 | -1.95098 | 17303 ft | 373 kts | 206° |
| 2026-04-23 16:56 | 50.16171 | -1.96871 | 17305 ft | 373 kts | 206° |
| 2026-04-23 16:56 | 50.13854 | -1.98658 | 17306 ft | 372 kts | 206° |
| 2026-04-23 16:56 | 50.11529 | -2.00449 | 17303 ft | 373 kts | 206° |
| 2026-04-23 16:57 | 50.09203 | -2.02239 | 17301 ft | 372 kts | 206° |
| 2026-04-23 16:57 | 50.06877 | -2.04027 | 17254 ft | 373 kts | 206° |
| 2026-04-23 16:57 | 50.04552 | -2.05811 | 17001 ft | 372 kts | 206° |
| 2026-04-23 16:57 | 50.02246 | -2.07580 | 16743 ft | 368 kts | 206° |
| 2026-04-23 16:58 | 49.99973 | -2.09398 | 16488 ft | 366 kts | 210° |
| 2026-04-23 16:58 | 49.97892 | -2.11656 | 16175 ft | 366 kts | 219° |
| 2026-04-23 16:58 | 49.96049 | -2.14407 | 15666 ft | 367 kts | 227° |
| 2026-04-23 16:58 | 49.94391 | -2.17340 | 15164 ft | 364 kts | 228° |
| 2026-04-23 16:59 | 49.92731 | -2.20276 | 14682 ft | 360 kts | 228° |
| 2026-04-23 16:59 | 49.91079 | -2.23182 | 14191 ft | 357 kts | 228° |
| 2026-04-23 16:59 | 49.89438 | -2.26054 | 13590 ft | 355 kts | 227° |
| 2026-04-23 16:59 | 49.87814 | -2.28891 | 13216 ft | 347 kts | 227° |
| 2026-04-23 17:00 | 49.86211 | -2.31684 | 12643 ft | 346 kts | 227° |
| 2026-04-23 17:00 | 49.84628 | -2.34440 | 12291 ft | 339 kts | 227° |
| 2026-04-23 17:00 | 49.83071 | -2.37148 | 11844 ft | 336 kts | 227° |
| 2026-04-23 17:00 | 49.81517 | -2.39847 | 11400 ft | 334 kts | 226° |
| 2026-04-23 17:01 | 49.80544 | -2.41535 | 11105 ft | 332 kts | 226° |
| 2026-04-23 17:01 | 49.79013 | -2.44185 | 10721 ft | 327 kts | 226° |
| 2026-04-23 17:01 | 49.77524 | -2.46764 | 10557 ft | 315 kts | 226° |
| 2026-04-23 17:01 | 49.76091 | -2.49243 | 10441 ft | 302 kts | 226° |
| 2026-04-23 17:02 | 49.75178 | -2.50822 | 10315 ft | 295 kts | 226° |
| 2026-04-23 17:02 | 49.73374 | -2.53937 | 10026 ft | 284 kts | 226° |
| 2026-04-23 17:02 | 49.72055 | -2.56212 | 9755 ft | 285 kts | 226° |
| 2026-04-23 17:02 | 49.70629 | -2.58223 | 9455 ft | 279 kts | 209° |
| 2026-04-23 17:03 | 49.68835 | -2.59240 | 9001 ft | 275 kts | 185° |
| 2026-04-23 17:03 | 49.66954 | -2.59342 | 8791 ft | 265 kts | 179° |
| 2026-04-23 17:03 | 49.65121 | -2.59407 | 8443 ft | 263 kts | 179° |
| 2026-04-23 17:03 | 49.63290 | -2.59485 | 8097 ft | 261 kts | 179° |
| 2026-04-23 17:04 | 49.61510 | -2.59570 | 7873 ft | 254 kts | 179° |
| 2026-04-23 17:04 | 49.59744 | -2.59655 | 7541 ft | 253 kts | 179° |
| 2026-04-23 17:04 | 49.57994 | -2.59737 | 7216 ft | 251 kts | 179° |
| 2026-04-23 17:04 | 49.56256 | -2.59818 | 6910 ft | 249 kts | 179° |
| 2026-04-23 17:05 | 49.54535 | -2.59900 | 6496 ft | 251 kts | 178° |
| 2026-04-23 17:05 | 49.52808 | -2.59979 | 6178 ft | 248 kts | 178° |
| 2026-04-23 17:05 | 49.51084 | -2.60063 | 5820 ft | 247 kts | 178° |
| 2026-04-23 17:05 | 49.49374 | -2.60140 | 5476 ft | 245 kts | 178° |
| 2026-04-23 17:06 | 49.47679 | -2.60217 | 5164 ft | 243 kts | 178° |
| 2026-04-23 17:06 | 49.46002 | -2.60402 | 4829 ft | 244 kts | 190° |
| 2026-04-23 17:06 | 49.44485 | -2.61637 | 4434 ft | 254 kts | 215° |
| 2026-04-23 17:06 | 49.43205 | -2.63547 | 4064 ft | 258 kts | 221° |
| 2026-04-23 17:07 | 49.41991 | -2.65591 | 3735 ft | 261 kts | 230° |
| 2026-04-23 17:07 | 49.41143 | -2.68048 | 3382 ft | 265 kts | 240° |
| 2026-04-23 17:07 | 49.40406 | -2.70658 | 2958 ft | 270 kts | 251° |
| 2026-04-23 17:07 | 49.40121 | -2.73496 | 2782 ft | 265 kts | 260° |
| 2026-04-23 17:08 | 49.39900 | -2.76254 | 2694 ft | 255 kts | 260° |
| 2026-04-23 17:08 | 49.39686 | -2.78919 | 2463 ft | 250 kts | 260° |
| 2026-04-23 17:08 | 49.39489 | -2.81531 | 2261 ft | 242 kts | 265° |
| 2026-04-23 17:08 | 49.39822 | -2.83979 | 2135 ft | 231 kts | 301° |
| 2026-04-23 17:09 | 49.40863 | -2.85634 | 2063 ft | 205 kts | 339° |
| 2026-04-23 17:09 | 49.42132 | -2.85990 | 2004 ft | 182 kts | 20° |
| 2026-04-23 17:09 | 49.43151 | -2.85252 | 1985 ft | 144 kts | 61° |
| 2026-04-23 17:09 | 49.43299 | -2.83881 | 2014 ft | 137 kts | 101° |
| 2026-04-23 17:10 | 49.43092 | -2.82475 | 1995 ft | 133 kts | 102° |
| 2026-04-23 17:10 | 49.42962 | -2.81073 | 1992 ft | 133 kts | 95° |
| 2026-04-23 17:10 | 49.42950 | -2.79651 | 1992 ft | 132 kts | 91° |
| 2026-04-23 17:10 | 49.42995 | -2.78219 | 1991 ft | 135 kts | 90° |
| 2026-04-23 17:11 | 49.43033 | -2.76801 | 2002 ft | 135 kts | 91° |
| 2026-04-23 17:11 | 49.43074 | -2.75365 | 2001 ft | 134 kts | 91° |
| 2026-04-23 17:11 | 49.43113 | -2.73948 | 2001 ft | 131 kts | 91° |
| 2026-04-23 17:11 | 49.43152 | -2.72567 | 1843 ft | 123 kts | 91° |
| 2026-04-23 17:12 | 49.43187 | -2.71333 | 1698 ft | 113 kts | 91° |
| 2026-04-23 17:12 | 49.43220 | -2.70129 | 1550 ft | 112 kts | 90° |
| 2026-04-23 17:12 | 49.43252 | -2.68934 | 1393 ft | 112 kts | 88° |
| 2026-04-23 17:12 | 49.43282 | -2.67731 | 1255 ft | 116 kts | 88° |
| 2026-04-23 17:13 | 49.43314 | -2.66478 | 1097 ft | 119 kts | 86° |
| 2026-04-23 17:13 | 49.43355 | -2.65190 | 861 ft | 122 kts | 86° |
| 2026-04-23 17:13 | 49.43394 | -2.63917 | 673 ft | 119 kts | 87° |
| 2026-04-23 17:13 | 49.43425 | -2.62632 | 526 ft | 121 kts | 84° |
| 2026-04-23 17:14 | 49.43463 | -2.61337 | 371 ft | 122 kts | 84° |
| 2026-04-23 17:14 | 49.43497 | -2.60262 | 337 ft | 59 kts | 86° |
| 2026-04-23 17:14 | 49.43510 | -2.59746 | 346 ft | 39 kts | 88° |
| 2026-04-23 17:14 | 49.43520 | -2.59395 | 347 ft | 28 kts | 88° |
| 2026-04-23 17:15 | 49.43508 | -2.59217 | 353 ft | 11 kts | 137° |
| 2026-04-23 17:15 | 49.43426 | -2.59196 | 335 ft | 11 kts | 179° |
| 2026-04-23 17:15 | 49.43372 | -2.59263 | 338 ft | 12 kts | 261° |
| 2026-04-23 17:15 | 49.43367 | -2.59411 | 335 ft | 15 kts | 268° |
| 2026-04-23 17:16 | 49.43362 | -2.59592 | 337 ft | 19 kts | 268° |
| 2026-04-23 17:16 | 49.43347 | -2.59687 | 336 ft | 6 kts | 208° |
| 2026-04-23 17:16 | 49.43293 | -2.59685 | 339 ft | 8 kts | 178° |
| 2026-04-23 17:16 | 49.43264 | -2.59683 | 339 ft | 2 kts | 176° |
| 2026-04-23 17:17 | 49.43263 | -2.59683 | 339 ft | 0 kts | 176° |